Time;durP1;ratioP1;P1;durP2;ratioP2;P2;SDS_P1;SDS_P2;PMS_P1;PMS_P2;Temp;Humidity;BMP_temperature;BMP_pressure;BME280_temperature;BME280_humidity;BME280_pressure;Samples;Min_cycle;Max_cycle;Signal;HPM_P1;HPM_P2
2022/01/26 00:06:53;;;;;;;;;;;;;;;14.06;50.85;102080.84;4938546;28;98359;-57
2022/01/26 00:09:19;;;;;;;;;;;;;;;14.06;50.82;102078.13;4968576;28;97982;-64
2022/01/26 00:11:44;;;;;;;;;;;;;;;14.05;51.19;102080.03;4980465;27;98546;-56
2022/01/26 00:14:13;;;;;;;;;;;;;;;14.06;50.88;102075.41;4978989;28;127932;-64
2022/01/26 00:16:43;;;;;;;;;;;;;;;14.06;51.26;102080.84;4979341;27;98020;-57
2022/01/26 00:19:18;;;;;;;;;;;;;;;14.05;51.15;102080.03;4980555;27;98593;-64
2022/01/26 00:21:54;;;;;;;;;;;;;;;14.06;50.98;102076.22;4980778;27;98408;-57
2022/01/26 00:29:22;;;;;;;;;;;;;;;14.06;50.98;102073.53;4981786;27;98039;-64
2022/01/26 00:40:12;;;;;;;;;;;;;;;14.05;51.09;102074.59;4981212;27;98139;-64
2022/01/26 00:42:40;;;;;;;;;;;;;;;14.04;51.12;102077.56;4981869;28;98559;-64
2022/01/26 00:45:07;;;;;;;;;;;;;;;14.04;50.83;102074.88;4983131;27;98546;-56
2022/01/26 00:47:33;;;;;;;;;;;;;;;14.04;50.99;102072.97;4983395;27;100180;-57
2022/01/26 00:50:04;;;;;;;;;;;;;;;14.03;50.99;102074.03;4982382;28;103148;-56
2022/01/26 00:52:39;;;;;;;;;;;;;;;14.03;50.80;102067.78;4982716;28;99472;-64
2022/01/26 00:55:06;;;;;;;;;;;;;;;14.03;50.93;102070.50;4983703;27;98223;-64
2022/01/26 00:57:32;;;;;;;;;;;;;;;14.02;51.00;102075.09;4983374;27;98349;-56
2022/01/26 00:59:59;;;;;;;;;;;;;;;14.02;51.16;102072.38;4982285;28;106130;-64
2022/01/26 01:02:26;;;;;;;;;;;;;;;14.02;51.08;102066.16;4982794;28;98739;-57
2022/01/26 01:04:52;;;;;;;;;;;;;;;14.02;51.17;102068.84;4982063;27;98192;-64
2022/01/26 01:07:21;;;;;;;;;;;;;;;14.00;50.90;102061.81;4982732;28;97967;-64
2022/01/26 01:09:47;;;;;;;;;;;;;;;13.99;51.07;102065.59;4982562;27;97950;-56
2022/01/26 01:12:13;;;;;;;;;;;;;;;14.00;51.08;102069.94;4980932;28;129548;-57
2022/01/26 01:14:42;;;;;;;;;;;;;;;14.00;51.04;102066.41;4981957;27;98312;-56
2022/01/26 01:17:11;;;;;;;;;;;;;;;13.98;51.02;102063.94;4982374;27;98397;-64
2022/01/26 01:19:49;;;;;;;;;;;;;;;13.99;50.91;102059.34;4982026;27;98043;-64
2022/01/26 01:27:58;;;;;;;;;;;;;;;13.97;51.11;102065.00;4979171;28;98461;-64
2022/01/26 01:30:34;;;;;;;;;;;;;;;13.96;50.97;102063.38;4982156;27;98312;-64
2022/01/26 01:35:31;;;;;;;;;;;;;;;13.97;51.11;102062.31;4981744;27;98485;-57
2022/01/26 01:37:57;;;;;;;;;;;;;;;13.96;51.12;102051.72;4982182;27;98636;-57
2022/01/26 01:40:23;;;;;;;;;;;;;;;13.95;50.70;102059.03;4982033;27;98262;-56
2022/01/26 01:42:49;;;;;;;;;;;;;;;13.95;51.15;102048.19;4982196;28;98919;-57
2022/01/26 01:45:15;;;;;;;;;;;;;;;13.95;50.96;102040.06;4980641;28;128136;-57
2022/01/26 01:47:41;;;;;;;;;;;;;;;13.95;50.73;102040.06;4981227;28;105798;-56
2022/01/26 01:50:11;;;;;;;;;;;;;;;13.94;50.71;102041.09;4980057;27;116470;-64
2022/01/26 01:52:37;;;;;;;;;;;;;;;13.94;51.01;102049.25;4979289;28;98736;-57
2022/01/26 01:55:04;;;;;;;;;;;;;;;13.94;50.68;102045.72;4981307;27;98247;-65
2022/01/26 01:57:31;;;;;;;;;;;;;;;13.93;50.86;102041.38;4981450;28;97872;-64
2022/01/26 01:59:57;;;;;;;;;;;;;;;13.93;50.92;102044.91;4980636;27;102765;-56
2022/01/26 02:02:22;;;;;;;;;;;;;;;13.94;50.62;102043.00;4961195;28;127721;-57
2022/01/26 02:04:48;;;;;;;;;;;;;;;13.93;50.61;102047.59;4979996;27;128137;-57
2022/01/26 02:07:14;;;;;;;;;;;;;;;13.92;50.67;102043.25;4980378;27;122503;-56
2022/01/26 02:09:40;;;;;;;;;;;;;;;13.92;50.68;102045.97;4980407;27;117523;-64
2022/01/26 02:12:17;;;;;;;;;;;;;;;13.92;50.86;102045.16;4980788;28;98190;-64
2022/01/26 02:14:49;;;;;;;;;;;;;;;13.92;50.71;102045.97;4979126;28;98256;-64
2022/01/26 02:52:48;;;;;;;;;;;;;;;13.87;50.66;102035.06;4978392;27;97965;-57
2022/01/26 03:00:18;;;;;;;;;;;;;;;13.85;50.45;102039.91;4979017;27;97869;-56
2022/01/26 03:05:13;;;;;;;;;;;;;;;13.85;50.84;102047.22;4979331;27;99364;-63
2022/01/26 03:07:48;;;;;;;;;;;;;;;13.84;50.53;102042.88;4981053;27;99127;-64
2022/01/26 03:10:25;;;;;;;;;;;;;;;13.83;50.69;102031.19;4980493;27;98202;-56
2022/01/26 03:12:59;;;;;;;;;;;;;;;13.83;50.68;102030.38;4981589;28;97810;-56
2022/01/26 03:15:34;;;;;;;;;;;;;;;13.82;50.53;102037.69;4980500;28;99433;-64
2022/01/26 03:20:32;;;;;;;;;;;;;;;13.82;50.49;102035.00;4979843;27;98121;-57
2022/01/26 03:28:40;;;;;;;;;;;;;;;13.81;50.82;102019.00;4977575;28;98196;-57
2022/01/26 03:34:07;;;;;;;;;;;;;;;13.80;50.80;102020.06;4979711;27;97872;-64
2022/01/26 03:36:43;;;;;;;;;;;;;;;13.80;50.65;102022.78;4980541;27;98352;-57
2022/01/26 03:39:11;;;;;;;;;;;;;;;13.79;50.53;102016.50;4980174;27;98405;-56
2022/01/26 03:44:12;;;;;;;;;;;;;;;13.77;50.75;102009.72;4978570;27;97957;-64
2022/01/26 03:46:38;;;;;;;;;;;;;;;13.78;50.87;102019.50;4980186;27;100836;-56
2022/01/26 03:49:04;;;;;;;;;;;;;;;13.75;50.85;102023.50;4980008;27;98560;-56
2022/01/26 03:51:31;;;;;;;;;;;;;;;13.75;51.04;102020.81;4980265;27;98612;-63
2022/01/26 03:53:56;;;;;;;;;;;;;;;13.75;50.99;102018.09;4980719;27;98042;-64
2022/01/26 03:56:22;;;;;;;;;;;;;;;13.74;50.87;102016.47;4979585;28;128658;-56
2022/01/26 03:58:48;;;;;;;;;;;;;;;13.73;50.58;102022.97;4983949;28;113977;-57
2022/01/26 04:01:14;;;;;;;;;;;;;;;13.72;51.00;102016.72;4982698;27;127013;-63
2022/01/26 04:03:40;;;;;;;;;;;;;;;13.73;50.53;102015.66;4984488;28;97721;-63
2022/01/26 04:06:06;;;;;;;;;;;;;;;13.73;50.76;102022.97;4982671;27;98946;-63
2022/01/26 04:08:34;;;;;;;;;;;;;;;13.70;50.66;102013.44;4982591;28;128209;-57
2022/01/26 04:11:23;;;;;;;;;;;;;;;13.70;50.93;102010.72;4982995;27;98341;-56
2022/01/26 04:13:50;;;;;;;;;;;;;;;13.71;50.91;102020.47;4984361;27;97884;-61
2022/01/26 04:16:16;;;;;;;;;;;;;;;13.70;50.98;102012.63;4983323;28;98863;-63
2022/01/26 04:18:42;;;;;;;;;;;;;;;13.69;50.87;102006.38;4983678;27;98481;-56
2022/01/26 04:23:54;;;;;;;;;;;;;;;13.70;50.65;102009.91;4980517;27;97738;-56
2022/01/26 04:26:27;;;;;;;;;;;;;;;13.69;50.57;102009.09;4983201;27;98261;-57
2022/01/26 04:28:59;;;;;;;;;;;;;;;13.70;50.74;102015.31;4982074;28;98359;-63
2022/01/26 04:31:25;;;;;;;;;;;;;;;13.69;50.67;102008.28;4982775;27;98075;-63
2022/01/26 04:33:52;;;;;;;;;;;;;;;13.68;51.04;102009.34;4983462;28;98552;-64
2022/01/26 04:36:28;;;;;;;;;;;;;;;13.68;50.87;102017.47;4983064;27;98086;-63
2022/01/26 04:38:58;;;;;;;;;;;;;;;13.68;50.75;102006.63;4984109;27;98692;-65
2022/01/26 04:41:30;;;;;;;;;;;;;;;13.68;50.63;102012.06;4982875;28;98103;-62
2022/01/26 04:44:03;;;;;;;;;;;;;;;13.67;50.98;101992.25;4984098;27;98017;-56
2022/01/26 04:46:29;;;;;;;;;;;;;;;13.67;50.69;101988.72;4982263;27;98583;-56
2022/01/26 04:48:55;;;;;;;;;;;;;;;13.66;50.82;101996.03;4982687;28;98929;-56
2022/01/26 04:51:21;;;;;;;;;;;;;;;13.66;51.06;101996.03;4982800;28;98050;-63
2022/01/26 04:53:47;;;;;;;;;;;;;;;13.66;50.99;101995.22;4983834;28;98345;-56
2022/01/26 04:56:14;;;;;;;;;;;;;;;13.66;50.76;101995.22;4981714;27;126135;-64
2022/01/26 04:58:41;;;;;;;;;;;;;;;13.66;50.97;101995.22;4982810;27;99128;-63
2022/01/26 05:01:06;;;;;;;;;;;;;;;13.67;50.95;101986.00;4979699;27;119464;-64
2022/01/26 05:03:32;;;;;;;;;;;;;;;13.66;50.97;101989.78;4982739;27;98160;-64
2022/01/26 05:05:58;;;;;;;;;;;;;;;13.66;50.67;101987.91;4981650;27;129275;-64
2022/01/26 05:08:24;;;;;;;;;;;;;;;13.66;50.71;101992.50;4981643;27;129043;-64
2022/01/26 05:10:50;;;;;;;;;;;;;;;13.67;50.65;101983.31;4980137;27;127315;-56
2022/01/26 05:13:16;;;;;;;;;;;;;;;13.66;50.83;101978.97;4982697;27;118456;-64
2022/01/26 05:15:42;;;;;;;;;;;;;;;13.64;50.98;101967.56;4982849;27;98857;-64
2022/01/26 05:18:11;;;;;;;;;;;;;;;13.65;50.85;101964.59;4983969;27;98203;-63
2022/01/26 05:20:37;;;;;;;;;;;;;;;13.65;50.91;101963.78;4980967;27;119162;-56
2022/01/26 05:23:03;;;;;;;;;;;;;;;13.65;50.84;101963.78;4983287;27;98043;-64
2022/01/26 05:25:29;;;;;;;;;;;;;;;13.64;50.59;101968.38;4979661;27;99065;-64
2022/01/26 05:27:55;;;;;;;;;;;;;;;13.64;50.85;101954.84;4981921;28;122167;-63
2022/01/26 05:30:21;;;;;;;;;;;;;;;13.64;50.78;101956.72;4980226;27;128369;-63
2022/01/26 05:32:47;;;;;;;;;;;;;;;13.64;50.90;101957.56;4981632;28;117438;-63
2022/01/26 05:35:13;;;;;;;;;;;;;;;13.64;50.69;101954.84;4980471;27;126961;-63
2022/01/26 05:37:39;;;;;;;;;;;;;;;13.64;50.76;101951.31;4981503;28;128364;-63
2022/01/26 05:40:06;;;;;;;;;;;;;;;13.64;50.82;101954.03;4978306;27;98942;-63
2022/01/26 05:42:34;;;;;;;;;;;;;;;13.64;50.80;101959.44;4978536;27;98023;-63
2022/01/26 05:45:04;;;;;;;;;;;;;;;13.63;51.03;101964.00;4978118;27;99232;-63
2022/01/26 05:47:32;;;;;;;;;;;;;;;13.62;50.72;101965.09;4971615;28;98817;-63
2022/01/26 05:49:58;;;;;;;;;;;;;;;13.62;50.66;101956.16;4977073;28;98509;-65
2022/01/26 05:52:24;;;;;;;;;;;;;;;13.61;50.82;101958.03;4980157;28;97710;-63
2022/01/26 05:54:50;;;;;;;;;;;;;;;13.61;50.99;101951.81;4976702;27;128075;-63
2022/01/26 05:57:16;;;;;;;;;;;;;;;13.60;50.89;101948.28;4977716;28;129004;-64
2022/01/26 05:59:42;;;;;;;;;;;;;;;13.60;50.92;101956.41;4976671;27;128541;-63
2022/01/26 06:02:08;;;;;;;;;;;;;;;13.61;50.69;101951.81;4970431;28;97816;-63
2022/01/26 06:04:34;;;;;;;;;;;;;;;13.59;50.81;101954.75;4978003;28;98640;-63
2022/01/26 06:07:00;;;;;;;;;;;;;;;13.60;50.74;101950.19;4976369;28;127031;-63
2022/01/26 06:09:26;;;;;;;;;;;;;;;13.58;50.76;101957.72;4978132;28;100534;-63
2022/01/26 06:11:52;;;;;;;;;;;;;;;13.58;50.91;101963.16;4980027;27;116934;-63
2022/01/26 06:14:18;;;;;;;;;;;;;;;13.58;50.99;101968.56;4981132;28;98489;-64
2022/01/26 06:16:44;;;;;;;;;;;;;;;13.58;50.86;101965.84;4980732;27;98474;-63
2022/01/26 06:19:12;;;;;;;;;;;;;;;13.56;50.61;101971.53;4979291;27;126729;-63
2022/01/26 06:21:38;;;;;;;;;;;;;;;13.56;50.93;101968.81;4979247;28;117520;-63
2022/01/26 06:24:05;;;;;;;;;;;;;;;13.56;50.64;101970.69;4980512;28;98378;-63
2022/01/26 06:26:31;;;;;;;;;;;;;;;13.56;50.70;101965.28;4979450;28;121099;-63
2022/01/26 06:28:57;;;;;;;;;;;;;;;13.55;50.69;101969.06;4981366;28;97740;-63
2022/01/26 06:31:26;;;;;;;;;;;;;;;13.55;50.74;101966.34;4979324;27;115278;-63
2022/01/26 06:33:52;;;;;;;;;;;;;;;13.55;50.69;101969.06;4980600;28;99026;-63
2022/01/26 06:36:18;;;;;;;;;;;;;;;13.56;50.77;101970.69;5013481;27;99198;-64
2022/01/26 06:38:46;;;;;;;;;;;;;;;13.54;50.68;101964.72;4980394;27;98697;-63
2022/01/26 06:41:12;;;;;;;;;;;;;;;13.54;50.69;101964.72;4980632;28;98516;-64
2022/01/26 06:43:47;;;;;;;;;;;;;;;13.54;50.94;101973.66;4980394;27;99905;-64
2022/01/26 06:46:21;;;;;;;;;;;;;;;13.54;50.85;101980.97;4981103;28;98375;-63
2022/01/26 06:51:31;;;;;;;;;;;;;;;13.54;50.84;101980.97;4980843;28;97924;-63
2022/01/26 06:53:57;;;;;;;;;;;;;;;13.53;50.80;101977.44;4979891;28;127964;-64
2022/01/26 06:56:23;;;;;;;;;;;;;;;13.53;50.83;101976.63;4979429;28;127236;-64
2022/01/26 06:58:49;;;;;;;;;;;;;;;13.53;50.92;101974.75;4979840;27;127319;-64
2022/01/26 07:01:15;;;;;;;;;;;;;;;13.51;50.63;101972.25;4977680;28;115499;-64
2022/01/26 07:03:41;;;;;;;;;;;;;;;13.54;50.59;101979.06;4978904;28;98535;-55
2022/01/26 07:06:07;;;;;;;;;;;;;;;13.54;50.96;101980.97;4979541;28;128039;-57
2022/01/26 07:08:33;;;;;;;;;;;;;;;13.54;50.63;101975.56;4978255;28;127093;-63
2022/01/26 07:10:59;;;;;;;;;;;;;;;13.54;50.64;101975.56;4978306;28;108508;-56
2022/01/26 07:13:26;;;;;;;;;;;;;;;13.53;50.62;101971.22;4961459;28;98767;-56
2022/01/26 07:21:25;;;;;;;;;;;;;;;13.56;50.42;101973.41;4979282;28;97792;-56
2022/01/26 07:23:51;;;;;;;;;;;;;;;13.56;50.63;101978.81;4980376;27;98339;-63
2022/01/26 07:26:17;;;;;;;;;;;;;;;13.58;50.61;101968.56;4979560;27;116631;-63
2022/01/26 07:28:43;;;;;;;;;;;;;;;13.58;50.60;101971.28;4980605;28;99140;-56
2022/01/26 07:31:09;;;;;;;;;;;;;;;13.58;50.65;101977.50;4977866;28;97905;-56
2022/01/26 07:33:37;;;;;;;;;;;;;;;13.58;50.49;101974.78;4979856;27;100789;-56
2022/01/26 07:36:03;;;;;;;;;;;;;;;13.60;50.94;101969.97;4979275;28;99280;-56
2022/01/26 07:38:31;;;;;;;;;;;;;;;13.61;50.75;101974.31;4979602;27;98521;-56
2022/01/26 07:40:56;;;;;;;;;;;;;;;13.62;50.71;101975.13;4979725;28;98067;-56
2022/01/26 07:43:24;;;;;;;;;;;;;;;13.62;50.88;101962.38;4979316;28;126199;-56
2022/01/26 07:45:50;;;;;;;;;;;;;;;13.64;50.79;101962.97;4978891;27;98256;-56
2022/01/26 07:48:16;;;;;;;;;;;;;;;13.65;50.54;101958.38;4979424;27;121852;-56
2022/01/26 07:50:42;;;;;;;;;;;;;;;13.66;50.85;101970.84;4978900;27;97792;-56
2022/01/26 07:53:14;;;;;;;;;;;;;;;13.66;50.59;101970.84;4979434;27;99282;-57
2022/01/26 07:55:40;;;;;;;;;;;;;;;13.68;50.68;101966.00;4979954;27;98263;-57
2022/01/26 07:58:08;;;;;;;;;;;;;;;13.68;50.90;101971.41;4980150;28;98486;-56
2022/01/26 08:00:34;;;;;;;;;;;;;;;13.68;50.91;101972.22;4979512;27;97963;-57
2022/01/26 08:03:00;;;;;;;;;;;;;;;13.70;50.67;101971.97;4979612;28;105197;-56
2022/01/26 08:05:26;;;;;;;;;;;;;;;13.72;50.63;101970.66;4979423;28;106370;-57
2022/01/26 08:07:52;;;;;;;;;;;;;;;13.75;50.63;101972.03;4979375;28;98083;-57
2022/01/26 08:10:18;;;;;;;;;;;;;;;13.78;50.49;101963.41;4978624;27;116013;-57
2022/01/26 08:12:44;;;;;;;;;;;;;;;13.80;50.59;101966.69;4977853;28;129637;-56
2022/01/26 08:15:10;;;;;;;;;;;;;;;13.83;50.68;101968.88;4976315;28;128059;-57
2022/01/26 08:17:36;;;;;;;;;;;;;;;13.85;50.37;101974.06;4979782;28;98054;-57
2022/01/26 08:20:05;;;;;;;;;;;;;;;13.87;50.68;101974.59;4979494;27;97823;-56
2022/01/26 08:22:31;;;;;;;;;;;;;;;13.86;50.60;101971.06;4979857;27;97837;-56
2022/01/26 08:24:57;;;;;;;;;;;;;;;13.87;50.65;101970.03;4978853;27;99050;-56
2022/01/26 08:27:26;;;;;;;;;;;;;;;13.88;50.87;101977.06;4979237;27;98021;-56
2022/01/26 08:29:57;;;;;;;;;;;;;;;13.89;50.46;101970.56;4978768;27;98458;-56
2022/01/26 08:32:23;;;;;;;;;;;;;;;13.90;50.77;101971.41;4976872;28;100542;-56
2022/01/26 08:34:49;;;;;;;;;;;;;;;13.92;50.74;101971.97;4979511;28;98388;-56
2022/01/26 08:37:15;;;;;;;;;;;;;;;13.94;50.54;101972.53;4977678;28;127593;-56
2022/01/26 08:39:41;;;;;;;;;;;;;;;13.94;50.36;101976.06;4979385;28;97758;-56
2022/01/26 08:42:07;;;;;;;;;;;;;;;13.95;50.47;101969.56;4978719;27;128976;-57
2022/01/26 08:44:34;;;;;;;;;;;;;;;13.97;50.60;101967.41;4982003;27;110524;-56
2022/01/26 08:47:00;;;;;;;;;;;;;;;13.99;50.51;101965.28;4980794;27;119183;-56
2022/01/26 08:49:27;;;;;;;;;;;;;;;13.99;50.97;101978.84;4982915;27;98050;-63
2022/01/26 08:51:53;;;;;;;;;;;;;;;14.00;50.49;101969.63;4982205;27;99291;-56
2022/01/26 08:54:22;;;;;;;;;;;;;;;14.03;50.88;101971.03;4982945;28;98006;-63
2022/01/26 08:56:51;;;;;;;;;;;;;;;14.04;50.45;101978.06;4982253;28;98336;-57
2022/01/26 08:59:18;;;;;;;;;;;;;;;14.07;51.01;101971.31;4983060;27;111160;-63
2022/01/26 09:01:44;;;;;;;;;;;;;;;14.07;50.55;101968.59;4982359;28;98069;-63
2022/01/26 09:04:10;;;;;;;;;;;;;;;14.09;50.68;101970.00;4981918;28;128861;-56
2022/01/26 09:06:41;;;;;;;;;;;;;;;14.09;50.70;101961.03;4981329;27;127629;-57
2022/01/26 09:09:08;;;;;;;;;;;;;;;14.10;50.79;101976.22;4983383;28;97874;-64
2022/01/26 09:11:37;;;;;;;;;;;;;;;14.10;50.54;101982.47;4982076;27;99084;-56
2022/01/26 09:14:08;;;;;;;;;;;;;;;14.10;51.10;101987.88;4982921;28;98197;-56
2022/01/26 09:16:35;;;;;;;;;;;;;;;14.08;50.98;101981.91;4982077;28;98233;-63
2022/01/26 09:19:09;;;;;;;;;;;;;;;14.07;51.04;101974.88;4982443;27;98114;-56
2022/01/26 09:21:35;;;;;;;;;;;;;;;14.05;51.04;101977.00;4983142;28;97887;-56
2022/01/26 09:24:01;;;;;;;;;;;;;;;14.07;51.06;101979.44;4982756;27;99962;-63
2022/01/26 09:26:27;;;;;;;;;;;;;;;14.09;51.04;101977.31;4982214;28;109937;-56
2022/01/26 09:28:53;;;;;;;;;;;;;;;14.13;50.65;101978.44;4981588;28;118214;-56
2022/01/26 09:31:19;;;;;;;;;;;;;;;14.19;50.57;101985.56;4981526;28;128267;-56
2022/01/26 09:33:45;;;;;;;;;;;;;;;14.23;50.58;101983.97;4981921;28;127960;-56
2022/01/26 09:36:13;;;;;;;;;;;;;;;14.25;50.51;101977.22;4981829;28;109186;-63
2022/01/26 09:38:39;;;;;;;;;;;;;;;14.29;50.71;101971.28;4980287;28;116790;-56
2022/01/26 09:41:05;;;;;;;;;;;;;;;14.32;50.75;101968.06;4981659;27;99031;-56
2022/01/26 09:43:31;;;;;;;;;;;;;;;14.34;50.78;101961.28;4981216;28;127827;-56
2022/01/26 09:45:57;;;;;;;;;;;;;;;14.40;50.35;101960.28;4979279;28;98032;-56
2022/01/26 09:48:23;;;;;;;;;;;;;;;14.44;50.55;101950.53;4981580;27;118377;-57
2022/01/26 09:50:54;;;;;;;;;;;;;;;14.50;50.80;101946.00;4980061;27;98671;-56
2022/01/26 09:53:26;;;;;;;;;;;;;;;14.54;50.79;101943.59;4980591;28;98969;-56
2022/01/26 09:55:52;;;;;;;;;;;;;;;14.59;50.66;101954.50;4981211;27;98102;-56
2022/01/26 09:58:20;;;;;;;;;;;;;;;14.59;50.32;101941.75;4981914;28;100912;-56
2022/01/26 10:00:46;;;;;;;;;;;;;;;14.60;50.89;101942.56;4981589;27;97711;-56
2022/01/26 10:03:13;;;;;;;;;;;;;;;14.64;50.37;101944.50;4982351;28;98630;-56
2022/01/26 10:05:41;;;;;;;;;;;;;;;14.68;50.80;101948.34;4979045;28;119040;-56
2022/01/26 10:08:49;;;;;;;;;;;;;;;14.72;50.65;101954.06;4981446;27;97869;-57
2022/01/26 10:19:00;;;;;;;;;;;;;;;14.65;50.69;101942.59;4979272;27;98038;-63
2022/01/26 10:21:26;;;;;;;;;;;;;;;14.67;51.06;101945.91;4979088;27;98047;-63
2022/01/26 10:23:54;;;;;;;;;;;;;;;14.65;50.99;101943.41;4979135;28;98622;-63
2022/01/26 10:26:20;;;;;;;;;;;;;;;14.65;50.88;101948.03;4981211;27;98579;-63
2022/01/26 10:28:56;;;;;;;;;;;;;;;14.70;50.75;101958.97;4979952;27;118772;-63
2022/01/26 10:31:27;;;;;;;;;;;;;;;14.75;50.81;101958.19;4980211;27;98259;-63
2022/01/26 10:33:57;;;;;;;;;;;;;;;14.80;50.95;101955.50;4980098;27;122299;-63
2022/01/26 10:36:39;;;;;;;;;;;;;;;14.82;50.78;101954.16;4981323;28;98110;-63
2022/01/26 10:39:27;;;;;;;;;;;;;;;14.84;51.08;101943.03;4961637;27;98091;-63
2022/01/26 10:41:56;;;;;;;;;;;;;;;14.89;51.04;101946.59;4978153;28;97980;-63
2022/01/26 10:45:03;;;;;;;;;;;;;;;14.95;50.70;101951.00;4981460;27;99371;-64
2022/01/26 10:47:34;;;;;;;;;;;;;;;15.06;50.76;101935.59;4980924;28;97933;-63
2022/01/26 10:50:30;;;;;;;;;;;;;;;15.06;50.58;101926.63;4978882;27;97871;-64
2022/01/26 10:53:05;;;;;;;;;;;;;;;15.00;50.93;101917.63;4980825;27;98562;-64
2022/01/26 10:55:33;;;;;;;;;;;;;;;14.97;51.04;101921.69;4980527;27;98707;-63
2022/01/26 10:57:59;;;;;;;;;;;;;;;14.94;51.00;101930.34;4980911;27;98610;-64
2022/01/26 11:00:24;;;;;;;;;;;;;;;14.89;50.83;101927.59;4978601;27;117753;-64
2022/01/26 11:02:52;;;;;;;;;;;;;;;14.85;50.97;101926.47;4978365;28;128093;-64
2022/01/26 11:05:19;;;;;;;;;;;;;;;14.88;51.33;101920.53;4980325;27;100576;-63
2022/01/26 11:07:45;;;;;;;;;;;;;;;14.92;50.74;101920.81;4980439;28;98370;-64
2022/01/26 11:10:12;;;;;;;;;;;;;;;14.93;50.95;101919.75;4978918;28;98488;-64
2022/01/26 11:12:40;;;;;;;;;;;;;;;14.97;50.81;101924.41;4980150;27;99066;-63
2022/01/26 11:15:07;;;;;;;;;;;;;;;14.98;51.02;101920.59;4979842;28;99398;-64
2022/01/26 11:17:36;;;;;;;;;;;;;;;15.04;50.94;101912.50;4980357;27;98709;-63
2022/01/26 11:20:17;;;;;;;;;;;;;;;15.12;51.07;101909.28;4981944;27;97962;-56
2022/01/26 11:22:54;;;;;;;;;;;;;;;15.11;50.93;101910.38;4980018;27;98608;-56
2022/01/26 11:25:20;;;;;;;;;;;;;;;15.12;50.85;101910.09;4970122;27;98312;-56
2022/01/26 11:27:46;;;;;;;;;;;;;;;15.06;51.10;101919.31;4979449;27;98103;-56
2022/01/26 11:30:30;;;;;;;;;;;;;;;15.04;50.86;101926.88;4977650;28;117377;-56
2022/01/26 11:32:59;;;;;;;;;;;;;;;15.02;51.38;101933.66;4979252;28;98879;-56
2022/01/26 11:35:29;;;;;;;;;;;;;;;14.97;51.05;101929.84;4979379;27;98905;-56
2022/01/26 11:46:59;;;;;;;;;;;;;;;14.94;51.39;101933.06;4979564;28;98070;-57
2022/01/26 11:49:34;;;;;;;;;;;;;;;14.95;51.42;101933.88;4978458;28;98067;-56
2022/01/26 11:52:00;;;;;;;;;;;;;;;14.92;51.09;101937.94;4957719;28;97815;-63
2022/01/26 11:54:28;;;;;;;;;;;;;;;14.89;51.48;101933.03;4975747;28;98937;-56
2022/01/26 11:57:02;;;;;;;;;;;;;;;14.87;51.33;101927.03;4979906;27;98867;-56
2022/01/26 11:59:31;;;;;;;;;;;;;;;14.83;51.25;101931.34;4978722;28;97974;-56
2022/01/26 12:02:03;;;;;;;;;;;;;;;14.83;51.69;101927.84;4977817;28;98097;-63
2022/01/26 12:04:34;;;;;;;;;;;;;;;14.82;51.18;101932.44;4978555;28;97896;-63
2022/01/26 12:07:22;;;;;;;;;;;;;;;14.79;51.35;101921.28;4978838;27;98462;-63
2022/01/26 12:09:48;;;;;;;;;;;;;;;14.80;51.15;101914.78;4980648;28;98095;-56
2022/01/26 12:12:18;;;;;;;;;;;;;;;14.78;51.38;101919.66;4980274;28;98329;-63
2022/01/26 12:14:56;;;;;;;;;;;;;;;14.74;51.52;101913.94;4979984;27;98824;-56
2022/01/26 12:17:29;;;;;;;;;;;;;;;14.71;51.64;101917.16;4974812;27;118151;-63
2022/01/26 12:32:06;;;;;;;;;;;;;;;14.69;51.49;101914.69;4963227;28;98139;-56
2022/01/26 12:34:45;;;;;;;;;;;;;;;14.68;51.80;101913.06;4954693;28;98435;-63
2022/01/26 12:37:30;;;;;;;;;;;;;;;14.65;51.88;101912.75;4981527;28;98472;-56
2022/01/26 12:45:21;;;;;;;;;;;;;;;14.58;51.89;101896.72;4966349;28;97784;-56
2022/01/26 12:47:47;;;;;;;;;;;;;;;14.58;51.51;101895.88;4982487;28;107069;-56
2022/01/26 12:50:13;;;;;;;;;;;;;;;14.58;51.83;101885.88;4980771;27;98852;-56
2022/01/26 12:52:39;;;;;;;;;;;;;;;14.58;51.59;101890.44;4981311;28;127794;-57
2022/01/26 12:55:06;;;;;;;;;;;;;;;14.56;51.94;101893.44;5014577;27;117507;-63
2022/01/26 12:57:41;;;;;;;;;;;;;;;14.54;51.94;101901.03;4982625;27;98146;-63
2022/01/26 13:00:08;;;;;;;;;;;;;;;14.51;52.05;101898.00;4980453;27;114611;-63
2022/01/26 13:02:34;;;;;;;;;;;;;;;14.48;51.93;101886.56;4982365;27;118697;-63
2022/01/26 13:05:00;;;;;;;;;;;;;;;14.53;51.96;101890.41;4982198;28;116242;-63
2022/01/26 13:07:26;;;;;;;;;;;;;;;14.52;52.00;101886.06;4981628;28;108919;-63
2022/01/26 13:09:52;;;;;;;;;;;;;;;14.51;51.93;101887.97;4982332;28;98800;-63
2022/01/26 13:12:28;;;;;;;;;;;;;;;14.55;51.92;101883.66;4981404;28;127397;-56
2022/01/26 13:15:11;;;;;;;;;;;;;;;14.56;51.45;101879.06;4980838;27;97993;-63
2022/01/26 13:17:43;;;;;;;;;;;;;;;14.57;51.40;101872.53;4980763;28;99005;-63
2022/01/26 13:26:15;;;;;;;;;;;;;;;14.55;51.53;101877.41;4981194;28;98228;-63
2022/01/26 13:28:56;;;;;;;;;;;;;;;14.54;51.87;101879.31;5013317;27;101317;-63
2022/01/26 13:32:04;;;;;;;;;;;;;;;14.52;51.68;101884.19;4982239;27;98414;-62
2022/01/26 13:36:55;;;;;;;;;;;;;;;14.48;51.85;101869.47;4980707;27;98073;-63
2022/01/26 13:50:13;;;;;;;;;;;;;;;14.39;51.99;101865.59;4980681;28;97826;-63
2022/01/26 13:52:51;;;;;;;;;;;;;;;14.34;51.67;101866.34;4982122;27;98566;-63
2022/01/26 13:55:33;;;;;;;;;;;;;;;14.33;51.83;101856.59;4982003;27;98031;-63
2022/01/26 13:58:21;;;;;;;;;;;;;;;14.30;52.16;101843.53;4981876;27;97895;-63
2022/01/26 14:00:57;;;;;;;;;;;;;;;14.31;51.85;101847.91;4980806;27;98877;-64
2022/01/26 14:03:25;;;;;;;;;;;;;;;14.27;51.67;101829.72;4981877;28;98432;-63
2022/01/26 14:05:51;;;;;;;;;;;;;;;14.21;52.16;101826.13;4981760;27;98097;-62
2022/01/26 14:08:17;;;;;;;;;;;;;;;14.17;52.18;101814.16;4981673;27;117629;-63
2022/01/26 14:10:46;;;;;;;;;;;;;;;14.12;51.86;101808.69;4980502;28;127900;-63
2022/01/26 14:13:13;;;;;;;;;;;;;;;14.08;52.24;101807.59;4982388;28;98329;-63
2022/01/26 14:15:43;;;;;;;;;;;;;;;14.06;51.80;101804.28;4979082;27;97635;-57
2022/01/26 14:20:52;;;;;;;;;;;;;;;13.96;51.92;101789.59;4979666;27;98203;-63
2022/01/26 14:25:47;;;;;;;;;;;;;;;13.90;51.95;101796.03;4978558;28;97903;-63
2022/01/26 14:28:16;;;;;;;;;;;;;;;13.89;51.84;101793.59;4980480;27;97909;-56
2022/01/26 15:08:44;;;;;;;;;;;;;;;13.55;51.73;101818.16;4975397;27;98332;-56
2022/01/26 15:35:21;;;;;;;;;;;;;;;13.31;51.56;101817.63;4976438;27;98654;-63
2022/01/26 15:43:33;;;;;;;;;;;;;;;13.26;51.66;101812.97;4974698;28;97870;-57
2022/01/26 15:49:02;;;;;;;;;;;;;;;13.30;51.28;101791.63;4975709;28;98249;-56
2022/01/26 16:04:21;;;;;;;;;;;;;;;13.51;50.93;101790.75;4980226;28;98305;-63
2022/01/26 16:05:25;;;;;;;;;;;;;;;13.55;51.06;101787.56;4980838;28;98531;-56
2022/01/26 16:08:08;;;;;;;;;;;;;;;13.56;50.78;101800.88;4981671;27;98538;-56
2022/01/26 16:21:26;;;;;;;;;;;;;;;13.55;50.78;101818.16;4979769;28;98451;-57
2022/01/26 16:37:45;;;;;;;;;;;;;;;13.48;50.75;101782.34;4935241;28;106273;-56
2022/01/26 18:15:59;;;;;;;;;;;;;;;12.99;50.33;101756.03;4976462;27;97905;-56
2022/01/26 18:40:28;;;;;;;;;;;;;;;12.96;50.27;101750.31;4932390;28;98763;-57
2022/01/26 18:50:59;;;;;;;;;;;;;;;12.93;50.11;101746.25;4973816;27;98114;-64
2022/01/26 18:53:25;;;;;;;;;;;;;;;12.94;50.32;101736.22;4974862;28;127704;-56
2022/01/26 18:55:51;;;;;;;;;;;;;;;12.91;50.38;101721.31;4975357;28;105546;-56
2022/01/26 18:58:16;;;;;;;;;;;;;;;12.92;50.13;101730.22;4975993;28;113727;-63
2022/01/26 19:00:44;;;;;;;;;;;;;;;12.92;50.40;101732.94;4974669;28;128272;-57
2022/01/26 19:03:11;;;;;;;;;;;;;;;12.90;50.29;101722.38;4976433;28;97831;-64
2022/01/26 19:05:37;;;;;;;;;;;;;;;12.91;50.18;101723.19;4974708;27;98832;-64
2022/01/26 19:08:03;;;;;;;;;;;;;;;12.90;50.18;101710.75;4975875;28;98098;-64